Wetterdaten: Woche 25.04.16 - 01.05.16 (KW17)
Datum Zeit Temperatur Luftfeuchte Luftdruck Niederschlag Windrichtung Sonnenschein Solar Wind
25.04.2016 00:00 1,4 C 88 % 1012,5 hPa 0,0 l/m NW 0,00 h 0 W/m 5,1 km/h (1 Bft)
25.04.2016 01:00 1,0 C 90 % 1012,3 hPa 0,0 l/m N 0,00 h 0 W/m 1,7 km/h (1 Bft)
25.04.2016 02:00 1,0 C 91 % 1012,1 hPa 0,0 l/m NW 0,00 h 0 W/m 2,8 km/h (1 Bft)
25.04.2016 03:00 1,1 C 89 % 1012,0 hPa 0,0 l/m NW 0,00 h 0 W/m 4,4 km/h (1 Bft)
25.04.2016 04:00 0,8 C 90 % 1011,9 hPa 0,0 l/m NW 0,00 h 0 W/m 2,4 km/h (1 Bft)
25.04.2016 05:00 0,7 C 89 % 1012,0 hPa 0,0 l/m NW 0,00 h 0 W/m 5,9 km/h (2 Bft)
25.04.2016 06:00 -0,0 C 89 % 1012,4 hPa 0,0 l/m NW 0,00 h 14 W/m 4,9 km/h (1 Bft)
25.04.2016 07:00 0,3 C 87 % 1012,9 hPa 0,0 l/m NW 0,00 h 42 W/m 6,4 km/h (2 Bft)
25.04.2016 08:00 1,3 C 83 % 1013,3 hPa 0,0 l/m W-NW 0,00 h 98 W/m 10,9 km/h (2 Bft)
25.04.2016 09:00 2,5 C 76 % 1013,5 hPa 0,0 l/m W-NW 0,33 h 298 W/m 17,0 km/h (3 Bft)
25.04.2016 10:00 3,1 C 72 % 1013,5 hPa 0,0 l/m W 0,58 h 337 W/m 21,9 km/h (4 Bft)
25.04.2016 11:00 4,1 C 68 % 1013,1 hPa 0,0 l/m W-NW 0,25 h 349 W/m 19,6 km/h (3 Bft)
25.04.2016 12:00 3,9 C 69 % 1012,9 hPa 0,0 l/m W-NW 0,17 h 296 W/m 21,7 km/h (4 Bft)
25.04.2016 13:00 4,9 C 64 % 1012,4 hPa 0,0 l/m W-SW 0,58 h 452 W/m 25,5 km/h (4 Bft)
25.04.2016 14:00 3,0 C 85 % 1012,2 hPa 0,2 l/m W-SW 0,33 h 325 W/m 21,7 km/h (4 Bft)
25.04.2016 15:00 5,1 C 71 % 1011,4 hPa 0,0 l/m W 0,50 h 347 W/m 25,6 km/h (4 Bft)
25.04.2016 16:00 5,2 C 72 % 1010,9 hPa 0,0 l/m W-SW 0,42 h 287 W/m 20,6 km/h (4 Bft)
25.04.2016 17:00 5,3 C 73 % 1010,4 hPa 0,0 l/m W-SW 0,58 h 316 W/m 24,1 km/h (4 Bft)
25.04.2016 18:00 5,5 C 67 % 1010,1 hPa 0,0 l/m W-SW 0,08 h 94 W/m 23,2 km/h (4 Bft)
25.04.2016 19:00 5,0 C 69 % 1010,0 hPa 0,0 l/m W-SW 0,00 h 22 W/m 20,7 km/h (4 Bft)
25.04.2016 20:00 3,8 C 81 % 1009,8 hPa 0,0 l/m W-SW 0,00 h 7 W/m 26,7 km/h (4 Bft)
25.04.2016 21:00 3,3 C 84 % 1009,4 hPa 0,0 l/m W-SW 0,00 h 0 W/m 25,1 km/h (4 Bft)
25.04.2016 22:00 3,2 C 86 % 1008,8 hPa 0,0 l/m W-SW 0,00 h 0 W/m 21,9 km/h (4 Bft)
25.04.2016 23:00 3,2 C 85 % 1008,1 hPa 0,0 l/m SW 0,00 h 0 W/m 23,5 km/h (4 Bft)
26.04.2016 00:00 3,4 C 84 % 1007,3 hPa 0,0 l/m W-SW 0,00 h 0 W/m 26,0 km/h (4 Bft)
26.04.2016 01:00 3,5 C 83 % 1006,8 hPa 0,0 l/m W-SW 0,00 h 0 W/m 27,2 km/h (4 Bft)
26.04.2016 02:00 3,6 C 82 % 1006,0 hPa 0,0 l/m W-SW 0,00 h 0 W/m 32,0 km/h (5 Bft)
26.04.2016 03:00 3,8 C 82 % 1005,2 hPa 0,0 l/m W-SW 0,00 h 0 W/m 30,2 km/h (5 Bft)
26.04.2016 04:00 3,9 C 81 % 1004,3 hPa 0,0 l/m W-SW 0,00 h 0 W/m 24,7 km/h (4 Bft)
26.04.2016 05:00 4,4 C 78 % 1003,9 hPa 0,0 l/m W-SW 0,00 h 0 W/m 29,5 km/h (5 Bft)
26.04.2016 06:00 5,0 C 74 % 1003,6 hPa 0,0 l/m W-SW 0,00 h 7 W/m 28,2 km/h (4 Bft)
26.04.2016 07:00 5,2 C 74 % 1003,3 hPa 0,0 l/m W-SW 0,00 h 25 W/m 31,4 km/h (5 Bft)
26.04.2016 08:00 5,4 C 76 % 1003,3 hPa 0,0 l/m W-SW 0,00 h 57 W/m 29,0 km/h (5 Bft)
26.04.2016 09:00 5,2 C 81 % 1003,4 hPa 0,0 l/m W-SW 0,00 h 106 W/m 32,9 km/h (5 Bft)
26.04.2016 10:00 5,0 C 85 % 1003,4 hPa 0,0 l/m W-SW 0,00 h 97 W/m 29,5 km/h (5 Bft)
26.04.2016 11:00 5,7 C 83 % 1003,2 hPa 0,0 l/m W-SW 0,00 h 137 W/m 31,5 km/h (5 Bft)
26.04.2016 12:00 5,3 C 83 % 1003,3 hPa 0,0 l/m N 0,00 h 102 W/m 22,3 km/h (4 Bft)
26.04.2016 13:00 2,2 C 92 % 1003,7 hPa 0,8 l/m N-NW 0,00 h 80 W/m 10,8 km/h (2 Bft)
26.04.2016 14:00 2,2 C 94 % 1004,0 hPa 0,4 l/m N-NW 0,00 h 66 W/m 8,3 km/h (2 Bft)
26.04.2016 15:00 2,6 C 94 % 1004,2 hPa 0,4 l/m W-NW 0,00 h 82 W/m 8,6 km/h (2 Bft)
26.04.2016 16:00 3,0 C 93 % 1004,1 hPa 0,0 l/m W-NW 0,00 h 89 W/m 0,4 km/h (0 Bft)
26.04.2016 17:00 3,1 C 93 % 1004,0 hPa 1,0 l/m W-NW 0,00 h 38 W/m 2,5 km/h (1 Bft)
26.04.2016 18:00 1,5 C 94 % 1004,1 hPa 1,0 l/m N 0,00 h 20 W/m 0,5 km/h (0 Bft)
26.04.2016 19:00 1,0 C 96 % 1003,9 hPa 0,0 l/m N 0,00 h 11 W/m 0,4 km/h (0 Bft)
26.04.2016 20:00 0,5 C 97 % 1004,1 hPa 0,0 l/m N 0,00 h 0 W/m 0,0 km/h (0 Bft)
26.04.2016 21:00 0,4 C 97 % 1004,3 hPa 0,0 l/m N 0,00 h 0 W/m 0,0 km/h (0 Bft)
26.04.2016 22:00 0,4 C 98 % 1004,7 hPa 0,0 l/m N 0,00 h 0 W/m 0,0 km/h (0 Bft)
26.04.2016 23:00 0,4 C 98 % 1005,1 hPa 0,0 l/m N 0,00 h 0 W/m 0,0 km/h (0 Bft)
27.04.2016 00:00 0,4 C 98 % 1005,5 hPa 0,8 l/m N 0,00 h 0 W/m 0,1 km/h (0 Bft)
27.04.2016 01:00 0,5 C 98 % 1006,1 hPa 3,6 l/m N 0,00 h 0 W/m 0,0 km/h (0 Bft)
27.04.2016 02:00 0,3 C 98 % 1006,3 hPa 2,4 l/m W-NW 0,00 h 0 W/m 4,3 km/h (1 Bft)
27.04.2016 03:00 0,3 C 98 % 1006,8 hPa 1,6 l/m W-NW 0,00 h 0 W/m 5,5 km/h (1 Bft)
27.04.2016 04:00 0,4 C 98 % 1007,6 hPa 1,0 l/m W-NW 0,00 h 0 W/m 5,6 km/h (1 Bft)
27.04.2016 05:00 0,4 C 98 % 1008,2 hPa 0,6 l/m W-NW 0,00 h 0 W/m 5,9 km/h (2 Bft)
27.04.2016 06:00 0,1 C 97 % 1009,0 hPa 0,2 l/m W-NW 0,00 h 7 W/m 7,1 km/h (2 Bft)
27.04.2016 07:00 0,1 C 96 % 1009,9 hPa 0,2 l/m W-NW 0,00 h 33 W/m 9,0 km/h (2 Bft)
27.04.2016 08:00 0,6 C 96 % 1010,3 hPa 0,0 l/m W-SW 0,00 h 67 W/m 10,1 km/h (2 Bft)
27.04.2016 09:00 1,1 C 94 % 1010,6 hPa 0,0 l/m W-SW 0,92 h 434 W/m 17,2 km/h (3 Bft)
27.04.2016 10:00 2,1 C 90 % 1010,9 hPa 0,0 l/m W-SW 1,00 h 647 W/m 21,0 km/h (4 Bft)
27.04.2016 11:00 3,1 C 85 % 1011,1 hPa 0,0 l/m W-SW 1,00 h 739 W/m 25,1 km/h (4 Bft)
27.04.2016 12:00 3,8 C 81 % 1011,2 hPa 0,0 l/m W-SW 0,50 h 515 W/m 22,8 km/h (4 Bft)
27.04.2016 13:00 3,3 C 82 % 1011,3 hPa 0,0 l/m W-SW 0,42 h 491 W/m 28,1 km/h (4 Bft)
27.04.2016 14:00 4,5 C 82 % 1011,3 hPa 0,0 l/m W-SW 1,00 h 884 W/m 30,4 km/h (5 Bft)
27.04.2016 15:00 6,1 C 68 % 1011,4 hPa 0,0 l/m W-SW 0,50 h 511 W/m 28,2 km/h (4 Bft)
27.04.2016 16:00 6,1 C 68 % 1011,6 hPa 0,0 l/m W-SW 0,83 h 616 W/m 27,1 km/h (4 Bft)
27.04.2016 17:00 6,2 C 64 % 1011,9 hPa 0,0 l/m W-SW 0,42 h 285 W/m 24,9 km/h (4 Bft)
27.04.2016 18:00 6,3 C 62 % 1012,4 hPa 0,0 l/m W-SW 0,83 h 310 W/m 22,9 km/h (4 Bft)
27.04.2016 19:00 5,1 C 66 % 1012,5 hPa 0,0 l/m W-SW 0,33 h 62 W/m 12,5 km/h (3 Bft)
27.04.2016 20:00 4,0 C 65 % 1013,0 hPa 0,0 l/m W-SW 0,00 h 9 W/m 13,6 km/h (3 Bft)
27.04.2016 21:00 2,5 C 75 % 1013,6 hPa 0,0 l/m W-SW 0,00 h 0 W/m 12,4 km/h (3 Bft)
27.04.2016 22:00 1,4 C 86 % 1013,9 hPa 0,0 l/m SW 0,00 h 0 W/m 12,9 km/h (3 Bft)
27.04.2016 23:00 1,5 C 86 % 1013,8 hPa 0,0 l/m W-SW 0,00 h 0 W/m 12,9 km/h (3 Bft)
28.04.2016 00:00 1,2 C 85 % 1013,7 hPa 0,0 l/m W 0,00 h 0 W/m 7,0 km/h (2 Bft)
28.04.2016 01:00 -0,4 C 92 % 1014,0 hPa 0,0 l/m N 0,00 h 0 W/m 0,3 km/h (0 Bft)
28.04.2016 02:00 -1,3 C 94 % 1013,8 hPa 0,0 l/m N 0,00 h 0 W/m 0,0 km/h (0 Bft)
28.04.2016 03:00 -1,7 C 95 % 1013,6 hPa 0,0 l/m N 0,00 h 0 W/m 0,0 km/h (0 Bft)
28.04.2016 04:00 -2,1 C 95 % 1013,5 hPa 0,0 l/m N 0,00 h 0 W/m 0,0 km/h (0 Bft)
28.04.2016 05:00 -2,3 C 96 % 1013,6 hPa 0,0 l/m N 0,00 h 0 W/m 0,0 km/h (0 Bft)
28.04.2016 06:00 -2,1 C 96 % 1014,0 hPa 0,0 l/m N 0,00 h 16 W/m 0,9 km/h (0 Bft)
28.04.2016 07:00 -0,8 C 95 % 1014,7 hPa 0,0 l/m N 0,17 h 83 W/m 0,5 km/h (0 Bft)
28.04.2016 08:00 1,0 C 89 % 1014,9 hPa 0,0 l/m W 0,50 h 259 W/m 7,2 km/h (2 Bft)
28.04.2016 09:00 3,1 C 84 % 1014,9 hPa 0,0 l/m S-SW 0,33 h 289 W/m 11,0 km/h (2 Bft)
28.04.2016 10:00 5,9 C 75 % 1014,7 hPa 0,0 l/m SW 0,58 h 510 W/m 14,5 km/h (3 Bft)
28.04.2016 11:00 7,4 C 63 % 1014,7 hPa 0,0 l/m SW 0,50 h 496 W/m 18,4 km/h (3 Bft)
28.04.2016 12:00 7,7 C 52 % 1014,6 hPa 0,0 l/m W-SW 0,25 h 405 W/m 22,6 km/h (4 Bft)
28.04.2016 13:00 7,4 C 62 % 1014,8 hPa 0,0 l/m N-NW 0,17 h 373 W/m 25,9 km/h (4 Bft)
28.04.2016 14:00 6,2 C 75 % 1015,3 hPa 0,0 l/m W-NW 0,33 h 405 W/m 20,8 km/h (4 Bft)
28.04.2016 15:00 8,5 C 61 % 1014,9 hPa 0,0 l/m NW 0,75 h 682 W/m 13,8 km/h (3 Bft)
28.04.2016 16:00 9,0 C 59 % 1014,7 hPa 0,0 l/m W-NW 0,67 h 474 W/m 16,5 km/h (3 Bft)
28.04.2016 17:00 8,4 C 66 % 1015,2 hPa 0,0 l/m N 0,83 h 444 W/m 16,0 km/h (3 Bft)
28.04.2016 18:00 8,2 C 63 % 1015,4 hPa 0,0 l/m NW 0,67 h 251 W/m 7,6 km/h (2 Bft)
28.04.2016 19:00 7,5 C 62 % 1015,6 hPa 0,0 l/m W-NW 0,00 h 51 W/m 3,9 km/h (1 Bft)
28.04.2016 20:00 6,0 C 72 % 1015,8 hPa 0,0 l/m N 0,00 h 11 W/m 0,0 km/h (0 Bft)
28.04.2016 21:00 3,7 C 82 % 1016,5 hPa 0,0 l/m N 0,00 h 0 W/m 0,0 km/h (0 Bft)
28.04.2016 22:00 2,9 C 86 % 1016,8 hPa 0,0 l/m W-NW 0,00 h 0 W/m 0,5 km/h (0 Bft)
28.04.2016 23:00 2,6 C 88 % 1016,9 hPa 0,0 l/m N 0,00 h 0 W/m 0,0 km/h (0 Bft)
29.04.2016 00:00 1,6 C 91 % 1017,0 hPa 0,0 l/m N 0,00 h 0 W/m 0,0 km/h (0 Bft)
29.04.2016 01:00 1,3 C 92 % 1017,0 hPa 0,0 l/m N 0,00 h 0 W/m 0,0 km/h (0 Bft)
29.04.2016 02:00 1,4 C 92 % 1016,7 hPa 0,0 l/m N 0,00 h 0 W/m 0,0 km/h (0 Bft)
29.04.2016 03:00 1,7 C 92 % 1016,7 hPa 0,0 l/m W-NW 0,00 h 0 W/m 1,5 km/h (1 Bft)
29.04.2016 04:00 1,9 C 91 % 1016,8 hPa 0,0 l/m W-NW 0,00 h 0 W/m 3,6 km/h (1 Bft)
29.04.2016 05:00 1,4 C 92 % 1016,8 hPa 0,0 l/m N 0,00 h 0 W/m 0,3 km/h (0 Bft)
29.04.2016 06:00 0,5 C 94 % 1017,2 hPa 0,0 l/m N 0,00 h 21 W/m 0,7 km/h (0 Bft)
29.04.2016 07:00 1,3 C 94 % 1017,4 hPa 0,0 l/m N 0,00 h 61 W/m 0,0 km/h (0 Bft)
29.04.2016 08:00 3,2 C 90 % 1017,8 hPa 0,0 l/m N 0,42 h 222 W/m 0,4 km/h (0 Bft)
29.04.2016 09:00 6,6 C 78 % 1017,7 hPa 0,0 l/m S-SW 1,00 h 469 W/m 9,3 km/h (2 Bft)
29.04.2016 10:00 9,1 C 62 % 1017,6 hPa 0,0 l/m S-SW 0,92 h 605 W/m 10,6 km/h (2 Bft)
29.04.2016 11:00 10,8 C 49 % 1017,4 hPa 0,0 l/m SO 1,00 h 775 W/m 9,5 km/h (2 Bft)
29.04.2016 12:00 12,3 C 45 % 1016,9 hPa 0,0 l/m S-SO 1,00 h 866 W/m 12,4 km/h (3 Bft)
29.04.2016 13:00 12,9 C 45 % 1016,4 hPa 0,0 l/m S-SW 0,75 h 695 W/m 11,7 km/h (2 Bft)
29.04.2016 14:00 13,0 C 47 % 1016,1 hPa 0,0 l/m SW 0,58 h 642 W/m 8,2 km/h (2 Bft)
29.04.2016 15:00 14,7 C 45 % 1015,7 hPa 0,0 l/m W-SW 0,92 h 811 W/m 11,7 km/h (2 Bft)
29.04.2016 16:00 14,9 C 42 % 1015,4 hPa 0,0 l/m SW 0,92 h 625 W/m 16,0 km/h (3 Bft)
29.04.2016 17:00 14,8 C 40 % 1015,1 hPa 0,0 l/m W 1,00 h 505 W/m 17,2 km/h (3 Bft)
29.04.2016 18:00 14,5 C 42 % 1015,0 hPa 0,0 l/m W 1,00 h 324 W/m 12,8 km/h (3 Bft)
29.04.2016 19:00 13,2 C 44 % 1015,0 hPa 0,0 l/m W-SW 0,42 h 88 W/m 6,3 km/h (2 Bft)
29.04.2016 20:00 9,8 C 61 % 1015,2 hPa 0,0 l/m N 0,00 h 11 W/m 0,3 km/h (0 Bft)
29.04.2016 21:00 7,5 C 69 % 1015,6 hPa 0,0 l/m N 0,00 h 0 W/m 0,0 km/h (0 Bft)
29.04.2016 22:00 6,2 C 76 % 1015,5 hPa 0,0 l/m N 0,00 h 0 W/m 0,0 km/h (0 Bft)
29.04.2016 23:00 5,1 C 81 % 1015,3 hPa 0,0 l/m N 0,00 h 0 W/m 0,0 km/h (0 Bft)
30.04.2016 00:00 4,4 C 84 % 1015,2 hPa 0,0 l/m N 0,00 h 0 W/m 0,0 km/h (0 Bft)
30.04.2016 01:00 3,8 C 87 % 1015,1 hPa 0,0 l/m N 0,00 h 0 W/m 0,0 km/h (0 Bft)
30.04.2016 02:00 3,0 C 89 % 1015,0 hPa 0,0 l/m N 0,00 h 0 W/m 0,0 km/h (0 Bft)
30.04.2016 03:00 2,4 C 91 % 1015,0 hPa 0,0 l/m N 0,00 h 0 W/m 0,0 km/h (0 Bft)
30.04.2016 04:00 2,1 C 92 % 1015,1 hPa 0,0 l/m N 0,00 h 0 W/m 0,0 km/h (0 Bft)
30.04.2016 05:00 1,2 C 93 % 1015,2 hPa 0,0 l/m N 0,00 h 0 W/m 0,0 km/h (0 Bft)
30.04.2016 06:00 1,3 C 94 % 1015,1 hPa 0,0 l/m N 0,00 h 19 W/m 0,0 km/h (0 Bft)
30.04.2016 07:00 3,4 C 91 % 1015,5 hPa 0,0 l/m N 0,50 h 130 W/m 0,4 km/h (0 Bft)
30.04.2016 08:00 5,7 C 84 % 1015,7 hPa 0,0 l/m W-SW 0,33 h 240 W/m 0,5 km/h (0 Bft)
30.04.2016 09:00 8,8 C 77 % 1015,3 hPa 0,0 l/m S-SW 1,00 h 469 W/m 8,3 km/h (2 Bft)
30.04.2016 10:00 11,8 C 64 % 1014,7 hPa 0,0 l/m S-SW 0,92 h 598 W/m 3,9 km/h (1 Bft)
30.04.2016 11:00 14,3 C 51 % 1013,8 hPa 0,0 l/m S 1,00 h 750 W/m 5,2 km/h (1 Bft)
30.04.2016 12:00 15,8 C 44 % 1013,0 hPa 0,0 l/m O-NO 1,00 h 741 W/m 10,1 km/h (2 Bft)
30.04.2016 13:00 16,9 C 40 % 1012,3 hPa 0,0 l/m O 0,83 h 663 W/m 11,0 km/h (2 Bft)
30.04.2016 14:00 16,7 C 42 % 1011,7 hPa 0,0 l/m O-NO 0,17 h 269 W/m 9,4 km/h (2 Bft)
30.04.2016 15:00 17,1 C 42 % 1011,0 hPa 0,0 l/m NO 0,42 h 356 W/m 14,1 km/h (3 Bft)
30.04.2016 16:00 16,9 C 42 % 1010,3 hPa 0,0 l/m O-NO 0,67 h 333 W/m 15,2 km/h (3 Bft)
30.04.2016 17:00 16,8 C 46 % 1009,9 hPa 0,0 l/m NO 0,58 h 267 W/m 16,6 km/h (3 Bft)
30.04.2016 18:00 16,0 C 49 % 1009,5 hPa 0,0 l/m NO 0,00 h 133 W/m 14,9 km/h (3 Bft)
30.04.2016 19:00 15,2 C 52 % 1009,1 hPa 0,0 l/m O-NO 0,00 h 67 W/m 13,0 km/h (3 Bft)
30.04.2016 20:00 14,2 C 52 % 1009,0 hPa 0,0 l/m O 0,00 h 11 W/m 14,8 km/h (3 Bft)
30.04.2016 21:00 11,7 C 69 % 1010,8 hPa 0,6 l/m W-NW 0,00 h 0 W/m 21,9 km/h (4 Bft)
30.04.2016 22:00 8,3 C 91 % 1011,7 hPa 2,2 l/m W-NW 0,00 h 0 W/m 16,1 km/h (3 Bft)
30.04.2016 23:00 7,3 C 93 % 1011,0 hPa 0,0 l/m NW 0,00 h 0 W/m 22,7 km/h (4 Bft)
01.05.2016 00:00 7,1 C 94 % 1010,9 hPa 0,8 l/m NW 0,00 h 0 W/m 8,9 km/h (2 Bft)
01.05.2016 01:00 7,0 C 95 % 1010,6 hPa 0,4 l/m W-NW 0,00 h 0 W/m 9,1 km/h (2 Bft)
01.05.2016 02:00 6,8 C 96 % 1010,8 hPa 0,0 l/m W-SW 0,00 h 0 W/m 2,5 km/h (1 Bft)
01.05.2016 03:00 6,8 C 97 % 1011,0 hPa 0,0 l/m W-SW 0,00 h 0 W/m 4,8 km/h (1 Bft)
01.05.2016 04:00 6,7 C 97 % 1010,9 hPa 0,0 l/m W-SW 0,00 h 0 W/m 4,5 km/h (1 Bft)
01.05.2016 05:00 6,6 C 97 % 1010,6 hPa 0,0 l/m W 0,00 h 0 W/m 6,6 km/h (2 Bft)
01.05.2016 06:00 6,6 C 97 % 1011,2 hPa 0,0 l/m W 0,00 h 0 W/m 1,3 km/h (1 Bft)
01.05.2016 07:00 6,4 C 98 % 1011,8 hPa 0,8 l/m N 0,00 h 7 W/m 0,7 km/h (0 Bft)
01.05.2016 08:00 6,5 C 98 % 1012,4 hPa 0,0 l/m N-NW 0,00 h 41 W/m 7,0 km/h (2 Bft)
01.05.2016 09:00 7,0 C 96 % 1012,8 hPa 0,0 l/m N 0,00 h 125 W/m 13,6 km/h (3 Bft)
01.05.2016 10:00 7,7 C 93 % 1013,3 hPa 0,0 l/m N-NW 0,00 h 145 W/m 10,1 km/h (2 Bft)
01.05.2016 11:00 8,2 C 90 % 1013,9 hPa 0,0 l/m N-NW 0,00 h 162 W/m 5,3 km/h (1 Bft)
01.05.2016 12:00 8,2 C 92 % 1014,1 hPa 0,0 l/m S-SW 0,00 h 123 W/m 10,6 km/h (2 Bft)
01.05.2016 13:00 7,9 C 94 % 1014,5 hPa 0,0 l/m S-SW 0,00 h 126 W/m 14,1 km/h (3 Bft)
01.05.2016 14:00 9,0 C 93 % 1014,7 hPa 0,0 l/m SW 0,08 h 183 W/m 16,5 km/h (3 Bft)
01.05.2016 15:00 8,6 C 95 % 1014,8 hPa 0,0 l/m S-SW 0,00 h 179 W/m 17,4 km/h (3 Bft)
01.05.2016 16:00 8,9 C 95 % 1015,3 hPa 0,0 l/m S-SW 0,00 h 162 W/m 15,4 km/h (3 Bft)
01.05.2016 17:00 8,2 C 95 % 1016,3 hPa 0,2 l/m S-SW 0,00 h 87 W/m 16,4 km/h (3 Bft)
01.05.2016 18:00 7,6 C 96 % 1017,4 hPa 0,2 l/m S-SW 0,00 h 47 W/m 14,0 km/h (3 Bft)
01.05.2016 19:00 7,2 C 97 % 1018,3 hPa 1,2 l/m N 0,00 h 17 W/m 0,8 km/h (0 Bft)
01.05.2016 20:00 7,4 C 97 % 1018,8 hPa 0,6 l/m NW 0,00 h 6 W/m 3,5 km/h (1 Bft)
01.05.2016 21:00 7,7 C 98 % 1019,7 hPa 0,4 l/m N-NO 0,00 h 0 W/m 5,5 km/h (1 Bft)
01.05.2016 22:00 7,7 C 98 % 1020,1 hPa 0,2 l/m N 0,00 h 0 W/m 0,0 km/h (0 Bft)
01.05.2016 23:00 7,7 C 98 % 1020,1 hPa 0,0 l/m N 0,00 h 0 W/m 0,3 km/h (0 Bft)
Min-Datum _ 28.04.16 29.04.16 26.04.16 - - - - 25.04.16
_ Min-Zeit 04:55 17:00 12:00 - - - - 00:05
Minimum _ -2,3 C 38 % 1002,9 hPa - - - - 0,0 km/h (0 Bft)
Max-Datum _ 30.04.16 26.04.16 01.05.16 27.04.16 - 25.04.16 28.04.16 25.04.16
_ Max-Zeit 15:30 22:15 22:35 01:05 - 09:30 13:05 13:50
Maximum _ 17,8 C 98 % 1020,3 hPa 3,6 l/m - 0,08 h 1143 W/m 43,5 km/h
W (6 Bft)
Durchschnitt _ 5,3 C 81 % 1012,1 hPa #21,8 l/m W-SW #34:45 h 269 W/m 11,0 km/h (2 Bft)